createdAt,value
2018-07-02T00:00:07.912Z,8.53
2018-07-02T00:06:02.892Z,7.9
2018-07-02T00:11:57.929Z,8.75
2018-07-02T00:17:52.939Z,6.77
2018-07-02T00:23:47.954Z,7.8
2018-07-02T00:29:42.948Z,6.67
2018-07-02T00:35:37.971Z,6.7
2018-07-02T00:41:32.893Z,7.54
2018-07-02T00:47:27.915Z,7.24
2018-07-02T00:53:22.901Z,6.34
2018-07-02T00:59:17.922Z,6.02
2018-07-02T01:05:12.969Z,6.44
2018-07-02T01:11:07.977Z,4.5
2018-07-02T01:17:02.960Z,5.99
2018-07-02T01:22:57.951Z,3.73
2018-07-02T01:28:52.971Z,4.57
2018-07-02T01:34:47.953Z,3.38
2018-07-02T01:40:42.962Z,3.62
2018-07-02T01:46:37.956Z,2.66
2018-07-02T01:52:32.954Z,2.53
2018-07-02T01:58:27.959Z,3
2018-07-02T02:04:22.970Z,3.34
2018-07-02T02:10:17.957Z,3.65
2018-07-02T02:16:13.008Z,3.49
2018-07-02T02:22:08.008Z,3.83
2018-07-02T02:28:03.022Z,3.89
2018-07-02T02:33:58.008Z,3.12
2018-07-02T02:39:52.971Z,3.41
2018-07-02T02:45:47.986Z,3.28
2018-07-02T02:51:43.029Z,3.91
2018-07-02T02:57:38.031Z,3.34
2018-07-02T03:03:33.018Z,3.5
2018-07-02T03:09:28.004Z,4.07
2018-07-02T03:15:22.974Z,3.93
2018-07-02T03:21:18.000Z,3.34
2018-07-02T03:27:12.981Z,3.56
2018-07-02T03:33:08.048Z,3.35
2018-07-02T03:39:03.052Z,4
2018-07-02T03:44:58.014Z,4.3
2018-07-02T03:50:53.034Z,3.89
2018-07-02T03:56:48.079Z,4.23
2018-07-02T04:02:43.054Z,4.22
2018-07-02T04:08:38.015Z,5.04
2018-07-02T04:14:33.036Z,6.23
2018-07-02T04:20:28.075Z,4.83
2018-07-02T04:26:23.059Z,6.48
2018-07-02T04:32:18.096Z,13.32
2018-07-02T04:38:13.080Z,7.21
2018-07-02T04:44:08.066Z,6.71
2018-07-02T04:50:03.079Z,5.65
2018-07-02T04:55:58.070Z,4.57
2018-07-02T05:01:53.043Z,5.63
2018-07-02T05:07:48.080Z,5.81
2018-07-02T05:13:43.049Z,5.35
2018-07-02T05:19:38.114Z,3.75
2018-07-02T05:25:33.065Z,3.68
2018-07-02T05:31:28.069Z,3.64
2018-07-02T05:37:23.095Z,3.42
2018-07-02T05:43:18.095Z,2.68
2018-07-02T05:49:13.094Z,2.71
2018-07-02T05:55:08.124Z,2.37
2018-07-02T06:01:03.132Z,2.36
2018-07-02T06:06:58.098Z,2.33
2018-07-02T06:12:53.104Z,2.5
2018-07-02T06:18:48.143Z,2.1
2018-07-02T06:24:43.151Z,2.14
2018-07-02T06:30:38.183Z,1.99
2018-07-02T06:36:33.125Z,2.03
2018-07-02T06:42:28.131Z,2.31
2018-07-02T06:48:23.153Z,2.11
2018-07-02T06:54:18.097Z,2.37
2018-07-02T07:00:13.172Z,2.33
2018-07-02T07:06:08.122Z,2.08
2018-07-02T07:12:03.132Z,2.6
2018-07-02T07:17:58.222Z,2.2
2018-07-02T07:23:53.160Z,2.87
2018-07-02T07:29:48.123Z,2.78
2018-07-02T07:35:43.202Z,3.7
2018-07-02T07:41:38.155Z,3.78
2018-07-02T07:47:33.205Z,3.29
2018-07-02T07:53:28.158Z,3.04
2018-07-02T07:59:23.220Z,2.68
2018-07-02T08:05:18.294Z,3.59
2018-07-02T08:11:13.196Z,1.93
2018-07-02T08:17:08.154Z,2.36
2018-07-02T08:23:03.163Z,1.66
2018-07-02T08:28:58.232Z,1.74
2018-07-02T08:34:53.189Z,1.62
2018-07-02T08:40:48.201Z,1.63
2018-07-02T08:46:43.273Z,1.41
2018-07-02T08:52:38.207Z,1.71
2018-07-02T08:58:33.208Z,1.75
2018-07-02T09:04:28.233Z,1.8
2018-07-02T09:10:23.225Z,1.68
2018-07-02T09:16:18.237Z,1.57
2018-07-02T09:22:13.238Z,1.79
2018-07-02T09:28:08.205Z,2.14
2018-07-02T09:34:03.201Z,2.12
2018-07-02T09:39:58.221Z,2.32
2018-07-02T09:45:53.262Z,2.22
2018-07-02T09:51:48.247Z,1.87
2018-07-02T09:57:43.242Z,1.7
2018-07-02T10:03:38.308Z,2.3
2018-07-02T10:09:33.257Z,3.28
2018-07-02T10:15:28.236Z,2.24
2018-07-02T10:21:23.243Z,8.81
2018-07-02T10:27:18.274Z,2.93
2018-07-02T10:33:13.274Z,1.82
2018-07-02T10:39:08.276Z,1.64
2018-07-02T10:45:03.270Z,1.7
2018-07-02T10:50:58.275Z,1.55
2018-07-02T10:56:53.324Z,1.98
2018-07-02T11:02:48.275Z,1.67
2018-07-02T11:08:43.280Z,2.48
2018-07-02T11:14:38.256Z,1.83
2018-07-02T11:20:33.268Z,1.91
2018-07-02T11:26:28.277Z,1.49
2018-07-02T11:32:23.338Z,1.85
2018-07-02T11:44:13.399Z,1.48
2018-07-02T11:44:13.460Z,1.25
2018-07-02T11:50:08.275Z,1.57
2018-07-02T11:56:03.380Z,1.37
2018-07-02T12:01:58.329Z,1.43
2018-07-02T12:07:53.298Z,1.19
2018-07-02T12:13:48.358Z,1.26
2018-07-02T12:19:43.324Z,1.14
2018-07-02T12:25:38.362Z,1.14
2018-07-02T12:31:33.293Z,0.99
2018-07-02T12:37:28.302Z,1.2
2018-07-02T12:43:23.384Z,1.09
2018-07-02T12:49:18.377Z,1.1
2018-07-02T12:55:13.346Z,0.86
2018-07-02T13:01:08.358Z,0.82
2018-07-02T13:07:03.352Z,0.94
2018-07-02T13:12:58.339Z,1.08
2018-07-02T13:18:53.426Z,1.06
2018-07-02T13:24:48.378Z,0.98
2018-07-02T13:30:43.339Z,0.93
2018-07-02T13:36:38.423Z,1.2
2018-07-02T13:42:33.422Z,0.97
2018-07-02T13:48:28.373Z,1.08
2018-07-02T13:54:23.371Z,1.04
2018-07-02T14:00:18.441Z,1.1
2018-07-02T14:06:13.435Z,1.68
2018-07-02T14:12:08.378Z,1.23
2018-07-02T14:18:03.414Z,1.39
2018-07-02T14:23:58.414Z,1.1
2018-07-02T14:29:53.398Z,1.43
2018-07-02T14:35:48.567Z,1.5
2018-07-02T14:41:43.432Z,2.07
2018-07-02T14:47:38.401Z,2.13
2018-07-02T14:53:33.410Z,2.16
2018-07-02T14:59:28.456Z,1.9
2018-07-02T15:05:23.417Z,2.25
2018-07-02T15:11:18.410Z,2.22
2018-07-02T15:17:13.423Z,2.24
2018-07-02T15:23:08.404Z,2.17
2018-07-02T15:29:03.510Z,2.11
2018-07-02T15:34:58.398Z,2.31
2018-07-02T15:40:53.426Z,2.34
2018-07-02T15:46:48.482Z,2.61
2018-07-02T15:52:43.480Z,3.04
2018-07-02T15:58:38.686Z,2.52
2018-07-02T16:04:33.444Z,2.27
2018-07-02T16:10:28.559Z,2.31
2018-07-02T16:16:23.425Z,2.46
2018-07-02T16:22:18.459Z,2.62
2018-07-02T16:28:13.450Z,2.8
2018-07-02T16:34:08.448Z,2.77
2018-07-02T16:40:03.483Z,2.78
2018-07-02T16:45:58.487Z,3
2018-07-02T16:51:53.518Z,2.79
2018-07-02T16:57:48.481Z,3.01
2018-07-02T17:03:43.471Z,2.71
2018-07-02T17:09:38.478Z,2.8
2018-07-02T17:15:33.491Z,2.6
2018-07-02T17:21:28.558Z,2.98
2018-07-02T17:27:23.541Z,2.49
2018-07-02T17:33:18.485Z,2.43
2018-07-02T17:39:13.529Z,2.21
2018-07-02T17:45:08.518Z,2.78
2018-07-02T17:51:03.508Z,2.59
2018-07-02T17:56:58.507Z,2.45
2018-07-02T18:02:53.533Z,2.6
2018-07-02T18:08:48.557Z,2.8
2018-07-02T18:14:43.521Z,3
2018-07-02T18:20:38.590Z,3.23
2018-07-02T18:26:33.531Z,2.86
2018-07-02T18:32:28.569Z,3.09
2018-07-02T18:38:23.535Z,2.98
2018-07-02T18:44:18.574Z,3.35
2018-07-02T18:50:13.635Z,3.14
2018-07-02T18:56:08.560Z,3.41
2018-07-02T19:02:03.544Z,3.79
2018-07-02T19:07:58.542Z,3.74
2018-07-02T19:13:53.581Z,3.53
2018-07-02T19:19:48.596Z,3.08
2018-07-02T19:25:43.548Z,3.34
2018-07-02T19:31:38.591Z,3.58
2018-07-02T19:37:33.609Z,3.93
2018-07-02T19:43:28.625Z,3.84
2018-07-02T19:49:23.574Z,4.02
2018-07-02T19:55:18.609Z,3.76
2018-07-02T20:01:13.614Z,4.26
2018-07-02T20:07:08.770Z,3.83
2018-07-02T20:13:03.603Z,4.37
2018-07-02T20:18:58.717Z,3.99
2018-07-02T20:24:53.689Z,4.13
2018-07-02T20:30:48.653Z,4.67
2018-07-02T20:36:43.664Z,4.72
2018-07-02T20:42:38.710Z,4.9
2018-07-02T20:48:33.694Z,4.64
2018-07-02T20:54:28.645Z,4.41
2018-07-02T21:00:23.645Z,4.55
2018-07-02T21:06:18.640Z,4.92
2018-07-02T21:12:13.614Z,4.66
2018-07-02T21:18:08.636Z,5.48
2018-07-02T21:24:03.659Z,5.1
2018-07-02T21:29:58.671Z,5.54
2018-07-02T21:35:53.659Z,5.23
2018-07-02T21:41:48.647Z,5.39
2018-07-02T21:47:43.680Z,5.16
2018-07-02T21:53:38.666Z,5.18
2018-07-02T21:59:33.658Z,5.23
2018-07-02T22:05:28.709Z,5.13
2018-07-02T22:11:23.674Z,5.73
2018-07-02T22:17:18.702Z,5.67
2018-07-02T22:23:13.694Z,6.79
2018-07-02T22:29:08.645Z,6.25
2018-07-02T22:35:03.721Z,5.79
2018-07-02T22:40:58.778Z,6
2018-07-02T22:46:53.678Z,5.95
2018-07-02T22:52:48.711Z,6.87
2018-07-02T22:58:43.722Z,6.23
2018-07-02T23:04:38.746Z,6.58
2018-07-02T23:10:33.721Z,6.9
2018-07-02T23:16:28.717Z,6.4
2018-07-02T23:22:23.687Z,6.13
2018-07-02T23:28:18.766Z,7
2018-07-02T23:34:13.763Z,6.71
2018-07-02T23:40:08.758Z,6.67
2018-07-02T23:46:03.827Z,6.68
2018-07-02T23:51:58.735Z,6.11
2018-07-02T23:57:53.728Z,6.49
